Crew | Aerofun Virtual



 METAR AND TAF INFORMATION
METAR FOR LEZL
ADDS - METARS form results

(0458 UTC 20 May 2019)
Data provider http://aviationweather.gov/metar/data/
 
METAR text: LEZL 200430Z 00000KT CAVOK 15/14 Q1012 NOSIG
Conditions at: LEZL (SEVILLA (CIV/MIL, ES) observed 0430 UTC 20 May 2019
Temperature: 15.0°C (59°F)
Dewpoint: 14.0°C (57°F) [RH = 94%]
Pressure (altimeter): 29.88 inches Hg (1012.0 mb)
Winds: calm
Visibility: 6 or more miles (10+ km)
Ceiling: ceiling and visibility are OK
Clouds: unknown
Weather: no significant weather observed at this time

METAR text: LEZL 200400Z VRB01KT CAVOK 16/14 Q1012 NOSIG
Conditions at: LEZL (SEVILLA (CIV/MIL, ES) observed 0400 UTC 20 May 2019
Temperature: 16.0°C (61°F)
Dewpoint: 14.0°C (57°F) [RH = 88%]
Pressure (altimeter): 29.88 inches Hg (1012.0 mb)
Winds: variable direction winds at 1 MPH (1 knots; 0.5 m/s)
Visibility: 6 or more miles (10+ km)
Ceiling: ceiling and visibility are OK
Clouds: unknown
Weather: no significant weather observed at this time

Forecast for: LEZL (SEVILLA (CIV/MIL, ES)
Text: TAF LEZL 200200Z 2003/2103 VRB02KT CAVOK TX29/2015Z TN14/2005Z
Forecast period: 0300 to 1300 UTC 20 May 2019
Forecast type: FROM: standard forecast or significant change
Winds: variable direction winds at 2 MPH (2 knots; 1.0 m/s)
Visibility: 6 or more miles 10+ km)
Ceiling: unknown
Clouds: missing
Weather: no significant weather forecast for this period
Text: BECMG 2013/2015 25010KT
Forecast period: 1300 to 2100 UTC 20 May 2019
Forecast type: BECOMING: Conditions expected to become as follows by 1500 UTC 20 May 2019
Winds: from the WSW (250 degrees) at 12 MPH (10 knots; 5.1 m/s)
Visibility: 6 or more miles 10+ km)
Ceiling: unknown
Clouds: missing
Weather: no significant weather forecast for this period
Text: BECMG 2021/2023 VRB02KT
Forecast period: 2100 UTC 20 May 2019 to 0300 UTC 21 May 2019
Forecast type: BECOMING: Conditions expected to become as follows by 2300 UTC 20 May 2019
Winds: variable direction winds at 2 MPH (2 knots; 1.0 m/s)
Visibility: 6 or more miles 10+ km)
Ceiling: unknown
Clouds: missing
Weather: no significant weather forecast for this period

 AIRPORT MAP

 RUNWAY INFORMATION
Runway 09 Runway length 11024 ft Runway width 148 ft
Runway elevation 83 ft Runway displaced threshold 0 ft Runway heading 90
Runway 27 Runway length 11024 ft Runway width 148 ft
Runway elevation 111 ft Runway displaced threshold 0 ft Runway heading 270

 AIRPORT FREQUENCIES
Type APP Name APP Frequency 120 MHZ
Type ATIS Name ATIS Frequency 118.175 MHZ
Type GND Name GND Frequency 121.7 MHZ
Type TWR Name TWR Frequency 118.1 MHZ

 AIRPORT NEAR NAVIGATION AIDS
Type NDB Name Sevilla Frequency 420 KHZ
Type VOR-DME Name Sevilla Frequency 113700 KHZ